createdAt,value
2019-02-20T00:00:57.946Z,10.10
2019-02-20T00:06:05.053Z,10.43
2019-02-20T00:11:10.238Z,9.57
2019-02-20T00:16:15.427Z,10.10
2019-02-20T00:21:20.629Z,10.40
2019-02-20T00:26:26.054Z,9.20
2019-02-20T00:31:31.258Z,10.27
2019-02-20T00:36:36.479Z,10.50
2019-02-20T00:41:41.997Z,9.73
2019-02-20T00:46:56.029Z,10.00
2019-02-20T00:52:13.571Z,10.50
2019-02-20T00:57:19.143Z,10.03
2019-02-20T01:02:24.367Z,9.77
2019-02-20T01:07:30.273Z,10.50
2019-02-20T01:12:35.454Z,9.87
2019-02-20T01:17:40.648Z,9.80
2019-02-20T01:22:46.173Z,10.27
2019-02-20T01:27:51.374Z,9.57
2019-02-20T01:32:56.819Z,10.20
2019-02-20T01:38:02.088Z,10.20
2019-02-20T01:43:07.607Z,10.10
2019-02-20T01:48:12.791Z,9.30
2019-02-20T01:53:20.051Z,9.17
2019-02-20T01:58:25.225Z,9.77
2019-02-20T02:03:30.406Z,9.57
2019-02-20T02:08:35.760Z,9.80
2019-02-20T02:13:41.256Z,9.90
2019-02-20T02:18:46.818Z,10.30
2019-02-20T02:23:52.773Z,9.87
2019-02-20T02:28:58.279Z,9.97
2019-02-20T02:34:03.463Z,10.60
2019-02-20T02:39:09.351Z,10.63
2019-02-20T02:44:14.617Z,9.90
2019-02-20T02:49:20.242Z,10.27
2019-02-20T02:54:25.839Z,10.43
2019-02-20T02:59:31.357Z,11.20
2019-02-20T03:04:36.541Z,10.27
2019-02-20T03:09:42.156Z,9.93
2019-02-20T03:14:47.339Z,10.33
2019-02-20T03:19:52.550Z,9.87
2019-02-20T03:24:57.780Z,9.50
2019-02-20T03:30:03.304Z,9.70
2019-02-20T03:35:09.440Z,10.17
2019-02-20T03:40:14.660Z,10.30
2019-02-20T03:45:20.202Z,10.80
2019-02-20T03:50:26.526Z,10.37
2019-02-20T03:55:32.051Z,11.07
2019-02-20T04:00:38.076Z,10.17
2019-02-20T04:05:43.271Z,10.43
2019-02-20T04:10:48.457Z,10.37
2019-02-20T04:15:54.741Z,10.07
2019-02-20T04:20:59.951Z,10.53
2019-02-20T04:26:05.451Z,10.50
2019-02-20T04:31:10.538Z,10.60
2019-02-20T04:36:15.759Z,9.93
2019-02-20T04:41:21.365Z,10.57
2019-02-20T04:46:27.437Z,10.70
2019-02-20T04:51:33.326Z,11.30
2019-02-20T04:56:38.492Z,10.50
2019-02-20T05:01:43.595Z,10.43
2019-02-20T05:06:48.687Z,11.23
2019-02-20T05:11:54.201Z,10.67
2019-02-20T05:16:59.398Z,9.83
2019-02-20T05:22:04.618Z,10.67
2019-02-20T05:27:10.047Z,10.77
2019-02-20T05:32:15.243Z,9.83
2019-02-20T05:37:20.830Z,10.67
2019-02-20T05:42:26.847Z,11.00
2019-02-20T05:47:32.219Z,10.63
2019-02-20T05:52:38.510Z,10.17
2019-02-20T05:57:43.928Z,10.80
2019-02-20T06:02:48.932Z,10.20
2019-02-20T06:07:54.439Z,10.73
2019-02-20T06:13:00.219Z,10.83
2019-02-20T06:18:05.803Z,10.17
2019-02-20T06:23:11.325Z,10.47
2019-02-20T06:28:16.772Z,10.67
2019-02-20T06:33:22.286Z,10.97
2019-02-20T06:38:27.308Z,11.03
2019-02-20T06:43:32.700Z,11.23
2019-02-20T06:48:38.112Z,11.37
2019-02-20T06:53:43.015Z,11.20
2019-02-20T06:58:48.239Z,11.50
2019-02-20T07:03:53.330Z,11.53
2019-02-20T07:09:22.863Z,12.40
2019-02-20T07:14:58.018Z,10.90
2019-02-20T07:20:21.943Z,11.70
2019-02-20T07:26:05.706Z,10.73
2019-02-20T07:31:10.879Z,11.40
2019-02-20T07:36:16.038Z,10.57
2019-02-20T07:41:21.193Z,11.27
2019-02-20T07:46:26.428Z,11.33
2019-02-20T07:51:32.625Z,11.30
2019-02-20T07:56:37.703Z,11.47
2019-02-20T08:01:43.029Z,11.30
2019-02-20T08:06:48.126Z,11.10
2019-02-20T08:11:53.224Z,10.70
2019-02-20T08:16:58.362Z,11.70
2019-02-20T08:22:03.491Z,11.83
2019-02-20T08:27:09.278Z,11.20
2019-02-20T08:32:14.693Z,10.60
2019-02-20T08:37:20.218Z,10.90
2019-02-20T08:42:25.630Z,11.10
2019-02-20T08:47:31.097Z,12.67
2019-02-20T08:52:36.694Z,13.00
2019-02-20T08:57:42.019Z,12.63
2019-02-20T09:02:47.176Z,12.68
2019-02-20T09:07:52.186Z,12.77
2019-02-20T09:12:57.941Z,13.07
2019-02-20T09:18:03.464Z,15.05
2019-02-20T09:23:10.127Z,13.70
2019-02-20T09:28:16.988Z,13.17
2019-02-20T09:33:22.971Z,12.00
2019-02-20T09:38:28.142Z,11.93
2019-02-20T09:43:33.302Z,11.85
2019-02-20T09:48:38.548Z,11.10
2019-02-20T09:53:43.715Z,11.18
2019-02-20T09:58:49.018Z,10.82
2019-02-20T10:03:54.209Z,10.32
2019-02-20T10:08:59.966Z,10.20
2019-02-20T10:14:05.210Z,9.25
2019-02-20T10:19:11.504Z,9.95
2019-02-20T10:24:17.633Z,9.98
2019-02-20T10:29:23.484Z,9.60
2019-02-20T10:34:29.011Z,8.88
2019-02-20T10:39:34.097Z,9.88
2019-02-20T10:44:39.190Z,9.90
2019-02-20T10:49:44.485Z,10.10
2019-02-20T10:54:57.414Z,10.00
2019-02-20T10:59:56.644Z,10.80
2019-02-20T11:05:01.814Z,9.65
2019-02-20T11:10:07.564Z,9.25
2019-02-20T11:15:13.410Z,9.08
2019-02-20T11:20:18.910Z,9.07
2019-02-20T11:25:24.150Z,7.60
2019-02-20T11:30:29.385Z,8.08
2019-02-20T11:35:34.567Z,6.90
2019-02-20T11:40:41.130Z,5.87
2019-02-20T11:45:46.368Z,4.08
2019-02-20T11:50:52.566Z,4.40
2019-02-20T11:55:57.796Z,3.17
2019-02-20T12:01:04.002Z,4.40
2019-02-20T12:06:10.429Z,5.92
2019-02-20T12:11:15.875Z,6.22
2019-02-20T12:16:21.103Z,6.65
2019-02-20T12:21:26.289Z,6.72
2019-02-20T12:26:35.154Z,6.60
2019-02-20T12:31:38.470Z,6.78
2019-02-20T12:36:43.758Z,6.80
2019-02-20T12:41:49.189Z,6.83
2019-02-20T12:46:54.556Z,7.75
2019-02-20T12:52:00.178Z,7.03
2019-02-20T12:57:08.073Z,7.28
2019-02-20T13:02:13.385Z,8.40
2019-02-20T13:07:18.792Z,7.75
2019-02-20T13:12:23.963Z,7.70
2019-02-20T13:17:29.735Z,8.65
2019-02-20T13:22:35.298Z,8.03
2019-02-20T13:27:40.550Z,8.30
2019-02-20T13:32:47.169Z,9.07
2019-02-20T13:37:52.365Z,9.85
2019-02-20T13:42:57.455Z,9.50
2019-02-20T13:48:02.696Z,8.65
2019-02-20T13:53:07.929Z,9.35
2019-02-20T13:58:13.967Z,9.53
2019-02-20T14:03:19.548Z,10.13
2019-02-20T14:08:24.779Z,9.38
2019-02-20T14:13:29.905Z,8.38
2019-02-20T14:18:35.361Z,8.80
2019-02-20T14:23:40.535Z,8.75
2019-02-20T14:28:45.963Z,9.08
2019-02-20T14:33:51.933Z,7.85
2019-02-20T14:38:57.376Z,8.05
2019-02-20T14:44:02.607Z,7.90
2019-02-20T14:49:09.480Z,7.53
2019-02-20T14:54:15.133Z,7.95
2019-02-20T14:59:20.355Z,8.40
2019-02-20T15:04:27.113Z,8.65
2019-02-20T15:09:32.677Z,9.65
2019-02-20T15:14:38.691Z,9.60
2019-02-20T15:19:45.124Z,9.75
2019-02-20T15:24:50.862Z,9.98
2019-02-20T15:29:56.715Z,9.65
2019-02-20T15:35:01.885Z,9.83
2019-02-20T15:40:08.304Z,9.70
2019-02-20T15:45:13.750Z,9.93
2019-02-20T15:50:18.981Z,9.23
2019-02-20T15:55:24.507Z,10.55
2019-02-20T16:00:29.769Z,9.90
2019-02-20T16:05:35.549Z,11.30
2019-02-20T16:10:40.789Z,10.43
2019-02-20T16:15:45.966Z,10.28
2019-02-20T16:20:51.232Z,11.12
2019-02-20T16:25:56.742Z,10.90
2019-02-20T16:31:02.170Z,10.90
2019-02-20T16:36:07.396Z,10.88
2019-02-20T16:41:13.401Z,10.30
2019-02-20T16:46:19.663Z,10.05
2019-02-20T16:51:24.914Z,10.03
2019-02-20T16:56:30.157Z,9.83
2019-02-20T17:01:35.954Z,8.65
2019-02-20T17:06:41.310Z,8.93
2019-02-20T17:11:46.804Z,9.55
2019-02-20T17:16:52.199Z,8.60
2019-02-20T17:21:58.213Z,8.20
2019-02-20T17:27:03.444Z,9.13
2019-02-20T17:32:08.785Z,8.48
2019-02-20T17:37:14.339Z,8.57
2019-02-20T17:42:19.847Z,8.60
2019-02-20T17:47:25.091Z,11.00
2019-02-20T17:52:30.267Z,11.22
2019-02-20T17:57:35.504Z,11.35
2019-02-20T18:02:40.830Z,10.05
2019-02-20T18:07:49.725Z,10.50
2019-02-20T18:12:52.959Z,12.68
2019-02-20T18:17:58.127Z,12.80
2019-02-20T18:23:03.455Z,12.20
2019-02-20T18:28:08.701Z,12.45
2019-02-20T18:33:13.879Z,12.70
2019-02-20T18:38:20.672Z,13.75
2019-02-20T18:43:27.572Z,12.93
2019-02-20T18:48:33.702Z,12.85
2019-02-20T18:53:39.203Z,12.13
2019-02-20T18:58:45.392Z,12.47
2019-02-20T19:03:51.664Z,13.25
2019-02-20T19:09:07.046Z,13.30
2019-02-20T19:14:19.707Z,13.53
2019-02-20T19:20:18.209Z,13.13
2019-02-20T19:26:08.353Z,13.07
2019-02-20T19:32:21.303Z,13.28
2019-02-20T19:37:47.742Z,13.85
2019-02-20T19:43:27.507Z,13.23
2019-02-20T19:48:59.009Z,12.78
2019-02-20T19:54:37.957Z,12.43
2019-02-20T20:00:09.945Z,13.28
2019-02-20T20:06:23.606Z,12.85
2019-02-20T20:12:27.186Z,14.07
2019-02-20T20:17:55.401Z,12.95
2019-02-20T20:23:32.468Z,14.07
2019-02-20T20:29:06.174Z,14.25
2019-02-20T20:34:47.224Z,14.05
2019-02-20T20:40:33.634Z,15.88
2019-02-20T20:45:48.931Z,15.07
2019-02-20T20:51:30.137Z,15.25
2019-02-20T20:57:04.982Z,14.43
2019-02-20T21:02:27.131Z,14.93
2019-02-20T21:08:03.394Z,15.40
2019-02-20T21:13:31.762Z,14.80
2019-02-20T21:19:21.553Z,14.77
2019-02-20T21:24:47.352Z,14.27
2019-02-20T21:29:59.252Z,14.57
2019-02-20T21:35:31.439Z,17.43
2019-02-20T21:40:55.006Z,15.70
2019-02-20T21:47:02.539Z,17.13
2019-02-20T21:53:04.097Z,14.23
2019-02-20T21:58:41.323Z,14.67
2019-02-20T22:04:33.472Z,14.43
2019-02-20T22:10:16.596Z,13.98
2019-02-20T22:15:59.963Z,13.80
2019-02-20T22:21:43.360Z,13.70
2019-02-20T22:27:29.281Z,14.63
2019-02-20T22:33:02.654Z,14.10
2019-02-20T22:38:56.349Z,14.60
2019-02-20T22:44:50.592Z,14.43
2019-02-20T22:50:48.256Z,14.40
2019-02-20T22:56:20.102Z,15.47
2019-02-20T23:01:51.851Z,15.23
2019-02-20T23:07:38.612Z,16.27
2019-02-20T23:13:22.377Z,15.57
2019-02-20T23:18:27.924Z,14.53
2019-02-20T23:23:33.869Z,15.03
2019-02-20T23:28:39.239Z,15.53
2019-02-20T23:33:45.117Z,14.30
2019-02-20T23:38:51.098Z,14.03
2019-02-20T23:43:56.592Z,15.43
2019-02-20T23:49:02.063Z,13.50
2019-02-20T23:54:07.909Z,14.80
2019-02-20T23:59:14.318Z,14.00
